createdAt,value
2022-08-26T00:01:40.185Z,100422.13
2022-08-26T00:04:42.025Z,100421.00
2022-08-26T00:07:44.162Z,100420.34
2022-08-26T00:10:46.031Z,100424.09
2022-08-26T00:13:48.905Z,100429.75
2022-08-26T00:16:51.854Z,100425.50
2022-08-26T00:19:57.164Z,100423.81
2022-08-26T00:22:58.845Z,100420.81
2022-08-26T00:26:01.331Z,100419.97
2022-08-26T00:29:03.904Z,100417.59
2022-08-26T00:32:07.012Z,100415.44
2022-08-26T00:35:10.434Z,100408.81
2022-08-26T00:38:13.373Z,100412.31
2022-08-26T00:41:15.386Z,100406.19
2022-08-26T00:44:19.558Z,100400.44
2022-08-26T00:47:28.547Z,100410.69
2022-08-26T00:50:38.490Z,100402.19
2022-08-26T00:53:48.193Z,100399.16
2022-08-26T00:56:53.428Z,100399.72
2022-08-26T00:59:58.899Z,100402.63
2022-08-26T01:03:03.460Z,100404.69
2022-08-26T01:06:12.574Z,100404.22
2022-08-26T01:09:16.254Z,100399.31
2022-08-26T01:12:22.217Z,100403.25
2022-08-26T01:15:32.953Z,100404.28
2022-08-26T01:18:35.927Z,100396.81
2022-08-26T01:22:03.626Z,100399.06
2022-08-26T01:25:05.928Z,100401.69
2022-08-26T01:28:14.637Z,100400.00
2022-08-26T01:31:23.786Z,100403.94
2022-08-26T01:34:35.068Z,100401.56
2022-08-26T01:37:40.504Z,100400.69
2022-08-26T01:40:44.023Z,100397.34
2022-08-26T01:43:48.455Z,100400.91
2022-08-26T01:46:52.235Z,100401.06
2022-08-26T01:49:56.762Z,100406.72
2022-08-26T01:53:02.624Z,100401.59
2022-08-26T01:56:05.345Z,100400.59
2022-08-26T01:59:11.293Z,100399.56
2022-08-26T02:02:14.039Z,100408.09
2022-08-26T02:05:19.419Z,100402.66
2022-08-26T02:08:39.247Z,100399.44
2022-08-26T02:11:41.160Z,100398.09
2022-08-26T02:14:50.154Z,100399.31
2022-08-26T02:17:53.231Z,100388.41
2022-08-26T02:20:56.377Z,100389.25
2022-08-26T02:24:08.999Z,100385.50
2022-08-26T02:27:10.686Z,100391.66
2022-08-26T02:30:18.114Z,100392.03
2022-08-26T02:33:19.817Z,100387.78
2022-08-26T02:36:25.043Z,100390.03
2022-08-26T02:39:31.827Z,100388.16
2022-08-26T02:42:34.060Z,100391.06
2022-08-26T02:45:36.051Z,100383.72
2022-08-26T02:48:37.741Z,100383.41
2022-08-26T02:51:39.447Z,100387.19
2022-08-26T02:54:41.842Z,100381.38
2022-08-26T02:57:43.740Z,100381.38
2022-08-26T03:00:52.539Z,100371.53
2022-08-26T03:03:56.178Z,100381.56
2022-08-26T03:06:58.685Z,100370.00
2022-08-26T03:10:01.520Z,100369.50
2022-08-26T03:13:10.073Z,100372.44
2022-08-26T03:16:13.411Z,100371.75
2022-08-26T03:19:15.325Z,100363.94
2022-08-26T03:22:19.430Z,100360.53
2022-08-26T03:25:23.032Z,100367.19
2022-08-26T03:28:27.209Z,100369.06
2022-08-26T03:31:29.838Z,100366.69
2022-08-26T03:34:31.985Z,100373.34
2022-08-26T03:37:33.663Z,100354.63
2022-08-26T03:40:36.767Z,100351.44
2022-08-26T03:43:40.708Z,100354.53
2022-08-26T03:46:42.445Z,100357.94
2022-08-26T03:49:45.751Z,100352.38
2022-08-26T03:52:47.939Z,100361.72
2022-08-26T03:55:51.887Z,100352.22
2022-08-26T03:58:54.240Z,100349.50
2022-08-26T04:01:56.033Z,100350.53
2022-08-26T04:04:57.740Z,100355.78
2022-08-26T04:07:59.580Z,100351.16
2022-08-26T04:11:01.294Z,100354.41
2022-08-26T04:14:14.288Z,100358.66
2022-08-26T04:17:20.068Z,100350.66
2022-08-26T04:20:27.269Z,100346.03
2022-08-26T04:23:29.853Z,100349.09
2022-08-26T04:26:39.509Z,100347.72
2022-08-26T04:29:46.263Z,100348.56
2022-08-26T04:32:54.234Z,100346.69
2022-08-26T04:36:01.004Z,100348.19
2022-08-26T04:39:05.337Z,100348.88
2022-08-26T04:42:07.037Z,100342.59
2022-08-26T04:45:10.395Z,100343.44
2022-08-26T04:48:13.485Z,100350.75
2022-08-26T04:51:20.997Z,100354.16
2022-08-26T04:54:22.746Z,100352.44
2022-08-26T04:57:24.450Z,100360.28
2022-08-26T05:00:26.131Z,100349.56
2022-08-26T05:03:30.539Z,100360.91
2022-08-26T05:06:36.823Z,100366.22
2022-08-26T05:09:42.055Z,100353.44
2022-08-26T05:12:44.360Z,100361.78
2022-08-26T05:15:47.034Z,100357.50
2022-08-26T05:18:48.982Z,100350.00
2022-08-26T05:21:50.649Z,100352.38
2022-08-26T05:24:52.300Z,100352.69
2022-08-26T05:27:54.313Z,100354.88
2022-08-26T05:30:56.351Z,100354.31
2022-08-26T05:33:59.286Z,100358.38
2022-08-26T05:37:00.952Z,100365.72
2022-08-26T05:40:04.610Z,100368.09
2022-08-26T05:43:10.410Z,100359.75
2022-08-26T05:46:12.394Z,100361.28
2022-08-26T05:49:15.840Z,100372.28
2022-08-26T05:52:17.759Z,100365.09
2022-08-26T05:55:20.652Z,100363.41
2022-08-26T05:58:23.109Z,100366.69
2022-08-26T06:01:28.022Z,100364.94
2022-08-26T06:04:29.914Z,100359.50
2022-08-26T06:07:50.367Z,100361.63
2022-08-26T06:10:59.822Z,100353.22
2022-08-26T06:14:06.076Z,100354.53
2022-08-26T06:17:31.791Z,100354.91
2022-08-26T06:20:36.922Z,100348.78
2022-08-26T06:23:57.847Z,100356.22
2022-08-26T06:27:04.955Z,100355.28
2022-08-26T06:30:07.344Z,100362.16
2022-08-26T06:36:55.519Z,100366.38
2022-08-26T06:40:05.607Z,100359.78
2022-08-26T06:43:09.221Z,100377.13
2022-08-26T06:46:12.854Z,100381.25
2022-08-26T06:49:14.496Z,100382.22
2022-08-26T06:52:24.422Z,100381.44
2022-08-26T06:55:26.941Z,100389.91
2022-08-26T06:58:28.906Z,100391.91
2022-08-26T07:01:33.762Z,100396.03
2022-08-26T07:04:36.174Z,100398.41
2022-08-26T07:07:38.457Z,100405.22
2022-08-26T07:10:40.122Z,100403.19
2022-08-26T07:13:41.867Z,100390.28
2022-08-26T07:16:45.086Z,100390.31
2022-08-26T07:19:48.926Z,100395.44
2022-08-26T07:22:51.066Z,100397.16
2022-08-26T07:25:52.746Z,100403.09
2022-08-26T07:28:56.218Z,100411.53
2022-08-26T07:31:58.487Z,100404.53
2022-08-26T07:35:01.510Z,100403.84
2022-08-26T07:38:03.467Z,100413.78
2022-08-26T07:41:06.107Z,100406.69
2022-08-26T07:44:10.225Z,100410.38
2022-08-26T07:47:24.984Z,100408.53
2022-08-26T07:50:38.429Z,100403.81
2022-08-26T07:53:52.403Z,100405.53
2022-08-26T07:56:55.856Z,100411.84
2022-08-26T07:59:59.088Z,100413.56
2022-08-26T08:03:02.652Z,100406.00
2022-08-26T08:06:04.626Z,100413.16
2022-08-26T08:09:07.905Z,100411.22
2022-08-26T08:12:14.112Z,100408.03
2022-08-26T08:15:20.398Z,100409.13
2022-08-26T08:18:23.392Z,100411.63
2022-08-26T08:21:25.905Z,100414.81
2022-08-26T08:24:27.724Z,100409.50
2022-08-26T08:27:29.513Z,100406.69
2022-08-26T08:30:31.841Z,100411.97
2022-08-26T08:33:36.847Z,100410.28
2022-08-26T08:36:40.183Z,100414.31
2022-08-26T08:39:43.263Z,100408.81
2022-08-26T08:43:07.099Z,100404.38
2022-08-26T08:46:15.406Z,100407.66
2022-08-26T08:49:18.553Z,100396.78
2022-08-26T08:52:29.474Z,100398.22
2022-08-26T08:55:55.593Z,100384.47
2022-08-26T08:59:56.868Z,100395.44
2022-08-26T09:03:11.965Z,100390.69
2022-08-26T09:06:22.620Z,100397.91
2022-08-26T09:09:50.999Z,100388.53
2022-08-26T09:12:53.096Z,100386.28
2022-08-26T09:16:14.050Z,100383.31
2022-08-26T09:19:52.320Z,100378.09
2022-08-26T09:26:32.572Z,100396.56
2022-08-26T09:29:50.490Z,100390.69
2022-08-26T09:33:02.491Z,100386.78
2022-08-26T09:36:26.305Z,100385.25
2022-08-26T09:39:38.583Z,100390.16
2022-08-26T09:42:40.392Z,100386.25
2022-08-26T09:45:58.489Z,100373.25
2022-08-26T09:49:32.665Z,100370.59
2022-08-26T09:52:38.208Z,100367.44
2022-08-26T09:55:45.776Z,100366.91
2022-08-26T09:58:48.279Z,100363.31
2022-08-26T10:01:50.136Z,100362.25
2022-08-26T10:04:55.334Z,100359.94
2022-08-26T10:07:59.572Z,100360.56
2022-08-26T10:11:24.572Z,100346.50
2022-08-26T10:14:48.893Z,100347.13
2022-08-26T10:18:03.630Z,100344.88
2022-08-26T10:21:29.117Z,100340.97
2022-08-26T10:24:41.866Z,100341.03
2022-08-26T10:27:58.952Z,100335.56
2022-08-26T10:31:14.751Z,100317.66
2022-08-26T10:34:18.601Z,100318.69
2022-08-26T10:37:31.140Z,100316.28
2022-08-26T10:41:09.810Z,100328.41
2022-08-26T10:44:16.096Z,100332.72
2022-08-26T10:47:46.107Z,100326.34
2022-08-26T10:50:48.719Z,100320.22
2022-08-26T10:53:58.987Z,100311.59
2022-08-26T10:57:10.953Z,100298.75
2022-08-26T11:00:50.002Z,100302.81
2022-08-26T11:04:10.653Z,100290.47
2022-08-26T11:07:43.273Z,100300.69
2022-08-26T11:10:59.999Z,100289.75
2022-08-26T11:14:05.079Z,100296.53
2022-08-26T11:17:09.461Z,100302.66
2022-08-26T11:20:23.874Z,100292.06
2022-08-26T11:23:28.953Z,100299.50
2022-08-26T11:26:55.397Z,100292.75
2022-08-26T11:30:13.156Z,100282.09
2022-08-26T11:33:47.923Z,100277.66
2022-08-26T11:37:04.044Z,100278.72
2022-08-26T11:40:12.359Z,100285.09
2022-08-26T11:43:30.566Z,100285.09
2022-08-26T11:46:37.970Z,100286.78
2022-08-26T11:49:41.802Z,100278.16
2022-08-26T11:53:13.911Z,100258.09
2022-08-26T12:05:09.190Z,100231.53
2022-08-26T12:08:24.865Z,100223.38
2022-08-26T12:11:34.616Z,100213.16
2022-08-26T12:18:45.966Z,100205.78
2022-08-26T12:21:49.107Z,100208.66
2022-08-26T12:24:59.864Z,100208.88
2022-08-26T12:28:05.586Z,100221.72
2022-08-26T12:31:08.355Z,100225.31
2022-08-26T12:34:18.130Z,100224.59
2022-08-26T12:37:20.389Z,100226.53
2022-08-26T12:40:43.587Z,100226.66
2022-08-26T12:43:45.999Z,100220.53
2022-08-26T12:46:49.786Z,100227.38
2022-08-26T12:50:03.418Z,100210.19
2022-08-26T12:53:17.841Z,100215.38
2022-08-26T12:56:29.400Z,100203.81
2022-08-26T12:59:31.061Z,100198.50
2022-08-26T13:02:38.314Z,100199.31
2022-08-26T13:05:40.088Z,100197.91
2022-08-26T13:08:49.375Z,100189.59
2022-08-26T13:11:53.163Z,100190.53
2022-08-26T13:14:55.282Z,100188.47
2022-08-26T13:17:58.294Z,100192.53
2022-08-26T13:21:00.332Z,100193.97
2022-08-26T13:24:09.444Z,100205.16
2022-08-26T13:27:14.358Z,100204.94
2022-08-26T13:30:16.254Z,100205.28
2022-08-26T13:33:18.589Z,100212.66
2022-08-26T13:36:20.359Z,100206.34
2022-08-26T13:39:22.830Z,100205.09
2022-08-26T13:42:24.617Z,100215.09
2022-08-26T13:45:26.286Z,100217.50
2022-08-26T13:48:28.056Z,100213.19
2022-08-26T13:51:30.034Z,100209.13
2022-08-26T13:54:31.738Z,100199.28
2022-08-26T13:57:33.692Z,100199.66
2022-08-26T14:00:44.096Z,100195.00
2022-08-26T14:03:46.319Z,100189.94
2022-08-26T14:06:48.207Z,100190.28
2022-08-26T14:09:50.122Z,100190.41
2022-08-26T14:12:52.797Z,100185.47
2022-08-26T14:15:54.681Z,100199.81
2022-08-26T14:18:56.391Z,100199.31
2022-08-26T14:22:00.801Z,100203.78
2022-08-26T14:25:02.985Z,100202.47
2022-08-26T14:28:04.997Z,100205.97
2022-08-26T14:31:07.184Z,100210.28
2022-08-26T14:34:09.716Z,100213.59
2022-08-26T14:37:19.047Z,100212.22
2022-08-26T14:40:22.790Z,100197.56
2022-08-26T14:43:24.529Z,100199.06
2022-08-26T14:46:29.444Z,100197.31
2022-08-26T14:49:32.347Z,100190.97
2022-08-26T14:52:53.973Z,100179.88
2022-08-26T14:55:55.659Z,100177.16
2022-08-26T14:58:57.449Z,100166.19
2022-08-26T15:02:00.708Z,100170.28
2022-08-26T15:05:04.432Z,100172.63
2022-08-26T15:08:13.951Z,100183.84
2022-08-26T15:11:20.469Z,100204.66
2022-08-26T15:14:26.759Z,100209.50
2022-08-26T15:17:29.477Z,100199.88
2022-08-26T15:20:38.748Z,100208.22
2022-08-26T15:23:47.620Z,100197.75
2022-08-26T15:26:50.112Z,100200.81
2022-08-26T15:29:51.895Z,100192.41
2022-08-26T15:32:53.695Z,100193.16
2022-08-26T15:35:55.873Z,100198.72
2022-08-26T15:39:04.526Z,100203.09
2022-08-26T15:42:15.128Z,100198.31
2022-08-26T15:45:25.999Z,100197.22
2022-08-26T15:48:34.347Z,100211.75
2022-08-26T15:51:45.843Z,100202.75
2022-08-26T15:54:47.869Z,100196.72
2022-08-26T15:57:51.713Z,100199.72
2022-08-26T16:00:57.632Z,100202.56
2022-08-26T16:03:59.798Z,100204.13
2022-08-26T16:07:01.991Z,100210.03
2022-08-26T16:10:04.046Z,100212.44
2022-08-26T16:13:27.112Z,100226.84
2022-08-26T16:16:41.480Z,100227.75
2022-08-26T16:19:43.337Z,100238.53
2022-08-26T16:22:45.078Z,100233.06
2022-08-26T16:25:47.087Z,100248.72
2022-08-26T16:28:49.144Z,100261.03
2022-08-26T16:31:53.373Z,100264.00
2022-08-26T16:34:56.695Z,100267.22
2022-08-26T16:37:58.794Z,100259.81
2022-08-26T16:41:01.246Z,100257.31
2022-08-26T16:44:04.199Z,100252.66
2022-08-26T16:47:06.088Z,100256.47
2022-08-26T16:50:13.021Z,100263.22
2022-08-26T16:56:18.973Z,100270.84
2022-08-26T16:59:24.063Z,100268.31
2022-08-26T17:02:28.911Z,100275.91
2022-08-26T17:05:30.783Z,100274.22
2022-08-26T17:08:40.100Z,100266.38
2022-08-26T17:11:42.072Z,100265.31
2022-08-26T17:14:43.834Z,100274.59
2022-08-26T17:17:50.888Z,100286.41
2022-08-26T17:20:55.529Z,100279.19
2022-08-26T17:23:57.403Z,100276.03
2022-08-26T17:26:59.071Z,100277.06
2022-08-26T17:30:00.697Z,100264.84
2022-08-26T17:33:02.627Z,100270.13
2022-08-26T17:36:12.481Z,100263.13
2022-08-26T17:39:14.442Z,100259.53
2022-08-26T17:42:16.401Z,100259.97
2022-08-26T17:45:21.739Z,100267.72
2022-08-26T17:48:29.602Z,100272.16
2022-08-26T17:51:31.417Z,100289.19
2022-08-26T17:54:33.133Z,100298.88
2022-08-26T17:57:40.556Z,100314.41
2022-08-26T18:00:45.005Z,100316.97
2022-08-26T18:03:50.079Z,100312.91
2022-08-26T18:06:51.876Z,100311.38
2022-08-26T18:09:53.633Z,100308.41
2022-08-26T18:12:57.629Z,100311.56
2022-08-26T18:15:59.934Z,100326.91
2022-08-26T18:19:01.988Z,100319.09
2022-08-26T18:22:03.897Z,100313.38
2022-08-26T18:25:07.759Z,100310.19
2022-08-26T18:28:09.896Z,100313.09
2022-08-26T18:31:11.695Z,100317.72
2022-08-26T18:34:15.436Z,100326.72
2022-08-26T18:37:17.313Z,100324.59
2022-08-26T18:40:19.058Z,100325.19
2022-08-26T18:43:21.324Z,100322.19
2022-08-26T18:46:25.380Z,100327.00
2022-08-26T18:49:27.932Z,100326.56
2022-08-26T18:52:32.971Z,100336.66
2022-08-26T18:55:39.676Z,100338.94
2022-08-26T18:58:41.535Z,100349.06
2022-08-26T19:01:46.648Z,100344.78
2022-08-26T19:04:54.422Z,100347.06
2022-08-26T19:07:57.163Z,100348.28
2022-08-26T19:11:01.232Z,100351.25
2022-08-26T19:14:08.216Z,100336.91
2022-08-26T19:17:10.901Z,100332.03
2022-08-26T19:20:12.681Z,100342.13
2022-08-26T19:23:30.959Z,100341.28
2022-08-26T19:26:34.360Z,100349.41
2022-08-26T19:29:36.318Z,100345.75
2022-08-26T19:32:38.273Z,100345.72
2022-08-26T19:35:45.035Z,100347.53
2022-08-26T19:38:47.681Z,100347.00
2022-08-26T19:41:49.490Z,100332.41
2022-08-26T19:45:24.346Z,100327.34
2022-08-26T19:48:27.356Z,100335.84
2022-08-26T19:51:31.733Z,100334.53
2022-08-26T19:54:34.151Z,100338.66
2022-08-26T19:57:36.890Z,100343.00
2022-08-26T20:00:39.803Z,100349.03
2022-08-26T20:03:42.151Z,100345.84
2022-08-26T20:06:43.793Z,100355.28
2022-08-26T20:09:46.770Z,100356.00
2022-08-26T20:12:51.855Z,100375.13
2022-08-26T20:15:53.549Z,100381.66
2022-08-26T20:19:13.687Z,100383.06
2022-08-26T20:22:15.599Z,100386.00
2022-08-26T20:25:17.348Z,100397.91
2022-08-26T20:28:19.120Z,100398.28
2022-08-26T20:31:21.619Z,100387.72
2022-08-26T20:34:23.396Z,100383.16
2022-08-26T20:37:25.270Z,100381.25
2022-08-26T20:40:27.089Z,100381.09
2022-08-26T20:43:29.421Z,100378.81
2022-08-26T20:46:34.612Z,100375.47
2022-08-26T20:49:36.312Z,100379.41
2022-08-26T20:52:38.665Z,100387.09
2022-08-26T20:55:40.302Z,100392.25
2022-08-26T20:58:42.355Z,100399.78
2022-08-26T21:01:45.508Z,100414.16
2022-08-26T21:04:47.493Z,100421.19
2022-08-26T21:07:49.300Z,100421.56
2022-08-26T21:10:51.597Z,100422.78
2022-08-26T21:14:06.701Z,100421.44
2022-08-26T21:17:16.330Z,100421.50
2022-08-26T21:20:18.658Z,100430.22
2022-08-26T21:23:20.407Z,100425.97
2022-08-26T21:26:22.706Z,100430.44
2022-08-26T21:29:24.461Z,100423.16
2022-08-26T21:32:26.404Z,100425.59
2022-08-26T21:35:28.071Z,100424.44
2022-08-26T21:38:31.065Z,100426.69
2022-08-26T21:41:32.809Z,100428.72
2022-08-26T21:44:34.577Z,100432.78
2022-08-26T21:47:36.477Z,100430.44
2022-08-26T21:50:38.273Z,100435.19
2022-08-26T21:53:40.657Z,100432.47
2022-08-26T21:56:46.776Z,100432.16
2022-08-26T21:59:48.499Z,100440.34
2022-08-26T22:02:50.234Z,100431.69
2022-08-26T22:05:52.645Z,100437.81
2022-08-26T22:08:55.922Z,100430.84
2022-08-26T22:11:58.135Z,100433.09
2022-08-26T22:14:59.828Z,100431.56
2022-08-26T22:18:05.297Z,100436.34
2022-08-26T22:21:09.604Z,100431.72
2022-08-26T22:24:12.270Z,100435.34
2022-08-26T22:27:14.761Z,100435.34
2022-08-26T22:30:16.483Z,100435.34
2022-08-26T22:33:18.793Z,100433.63
2022-08-26T22:36:28.861Z,100438.38
2022-08-26T22:39:31.133Z,100432.44
2022-08-26T22:42:33.237Z,100435.69
2022-08-26T22:45:35.070Z,100427.88
2022-08-26T22:48:38.505Z,100428.25
2022-08-26T22:51:40.164Z,100420.22
2022-08-26T22:54:41.812Z,100417.72
2022-08-26T22:57:43.714Z,100421.78
2022-08-26T23:00:47.963Z,100424.88
2022-08-26T23:03:49.886Z,100424.53
2022-08-26T23:06:51.592Z,100428.09
2022-08-26T23:09:53.213Z,100429.16
2022-08-26T23:12:54.871Z,100427.44
2022-08-26T23:16:09.201Z,100429.78
2022-08-26T23:19:14.534Z,100427.44
2022-08-26T23:22:17.471Z,100425.91
2022-08-26T23:25:19.419Z,100428.47
2022-08-26T23:28:23.043Z,100424.03
2022-08-26T23:31:24.990Z,100421.31
2022-08-26T23:34:45.269Z,100420.47
2022-08-26T23:37:54.105Z,100420.47
2022-08-26T23:40:57.263Z,100409.75
2022-08-26T23:44:03.304Z,100416.91
2022-08-26T23:47:06.124Z,100411.81
2022-08-26T23:50:08.974Z,100415.38
2022-08-26T23:53:11.239Z,100404.66
2022-08-26T23:56:15.880Z,100402.13
2022-08-26T23:59:17.595Z,100404.16
